createdAt,value
2018-05-16T00:01:27.242Z,11.70
2018-05-16T00:03:55.372Z,11.70
2018-05-16T00:06:23.489Z,11.69
2018-05-16T00:08:51.627Z,11.68
2018-05-16T00:11:19.755Z,11.68
2018-05-16T00:13:47.890Z,11.68
2018-05-16T00:16:16.006Z,11.68
2018-05-16T00:18:44.140Z,11.66
2018-05-16T00:21:12.266Z,11.66
2018-05-16T00:23:40.398Z,11.67
2018-05-16T00:26:08.528Z,11.69
2018-05-16T00:28:36.655Z,11.67
2018-05-16T00:31:04.810Z,11.67
2018-05-16T00:33:32.990Z,11.68
2018-05-16T00:36:01.128Z,11.71
2018-05-16T00:38:29.266Z,11.70
2018-05-16T00:40:57.392Z,11.69
2018-05-16T00:43:25.542Z,11.67
2018-05-16T00:45:53.674Z,11.68
2018-05-16T00:48:21.854Z,11.69
2018-05-16T00:51:01.859Z,11.69
2018-05-16T00:53:30.004Z,11.68
2018-05-16T00:55:58.136Z,11.67
2018-05-16T00:58:26.286Z,11.67
2018-05-16T01:00:54.488Z,11.67
2018-05-16T01:03:22.612Z,11.66
2018-05-16T01:05:50.738Z,11.67
2018-05-16T01:08:18.858Z,11.67
2018-05-16T01:10:46.995Z,11.65
2018-05-16T01:13:15.149Z,11.66
2018-05-16T01:15:43.262Z,11.64
2018-05-16T01:18:11.459Z,11.63
2018-05-16T01:20:39.511Z,11.62
2018-05-16T01:23:07.661Z,11.63
2018-05-16T01:25:35.783Z,11.64
2018-05-16T01:28:03.905Z,11.65
2018-05-16T01:30:32.050Z,11.65
2018-05-16T01:33:00.166Z,11.65
2018-05-16T01:35:28.294Z,11.65
2018-05-16T01:37:56.425Z,11.65
2018-05-16T01:40:24.564Z,11.63
2018-05-16T01:42:52.700Z,11.65
2018-05-16T01:45:20.844Z,11.63
2018-05-16T01:47:48.973Z,11.62
2018-05-16T01:50:17.102Z,11.63
2018-05-16T01:52:45.339Z,11.63
2018-05-16T01:55:13.710Z,11.62
2018-05-16T01:57:41.842Z,11.62
2018-05-16T02:00:09.970Z,11.64
2018-05-16T02:02:38.091Z,11.64
2018-05-16T02:05:06.302Z,11.63
2018-05-16T02:07:34.417Z,11.63
2018-05-16T02:10:02.542Z,11.62
2018-05-16T02:12:30.661Z,11.63
2018-05-16T02:14:58.796Z,11.61
2018-05-16T02:17:26.907Z,11.61
2018-05-16T02:19:55.042Z,11.63
2018-05-16T02:22:23.184Z,11.64
2018-05-16T02:24:51.305Z,11.63
2018-05-16T02:27:19.435Z,11.63
2018-05-16T02:29:47.573Z,11.64
2018-05-16T02:32:15.698Z,11.63
2018-05-16T02:34:43.823Z,11.63
2018-05-16T02:37:11.942Z,11.64
2018-05-16T02:39:40.068Z,11.63
2018-05-16T02:42:08.335Z,11.62
2018-05-16T02:44:36.465Z,11.61
2018-05-16T02:47:04.586Z,11.65
2018-05-16T02:49:32.715Z,11.62
2018-05-16T02:52:00.883Z,11.63
2018-05-16T02:54:29.028Z,11.64
2018-05-16T02:56:57.152Z,11.64
2018-05-16T02:59:25.290Z,11.65
2018-05-16T03:01:53.421Z,11.63
2018-05-16T03:04:21.556Z,11.64
2018-05-16T03:06:49.690Z,11.65
2018-05-16T03:09:17.847Z,11.66
2018-05-16T03:11:46.007Z,11.67
2018-05-16T03:14:14.139Z,11.68
2018-05-16T03:16:42.290Z,11.68
2018-05-16T03:19:10.431Z,11.68
2018-05-16T03:21:38.548Z,11.68
2018-05-16T03:24:06.691Z,11.67
2018-05-16T03:26:34.830Z,11.67
2018-05-16T03:29:02.966Z,11.66
2018-05-16T03:31:31.113Z,11.66
2018-05-16T03:33:59.253Z,11.63
2018-05-16T03:36:27.388Z,11.63
2018-05-16T03:38:55.529Z,11.62
2018-05-16T03:41:23.667Z,11.63
2018-05-16T03:43:51.804Z,11.61
2018-05-16T03:46:19.925Z,11.60
2018-05-16T03:48:48.058Z,11.62
2018-05-16T03:51:16.288Z,11.65
2018-05-16T03:53:44.430Z,11.64
2018-05-16T03:56:12.584Z,11.67
2018-05-16T03:58:52.578Z,11.68
2018-05-16T04:01:32.523Z,11.67
2018-05-16T04:04:12.557Z,11.67
2018-05-16T04:06:40.683Z,11.68
2018-05-16T04:09:08.839Z,11.69
2018-05-16T04:11:36.993Z,11.71
2018-05-16T04:14:05.121Z,11.74
2018-05-16T04:16:33.262Z,11.77
2018-05-16T04:19:01.401Z,11.78
2018-05-16T04:21:29.629Z,11.78
2018-05-16T04:23:57.679Z,11.80
2018-05-16T04:26:25.826Z,11.81
2018-05-16T04:28:54.020Z,11.83
2018-05-16T04:31:22.105Z,11.86
2018-05-16T04:33:50.239Z,11.93
2018-05-16T04:36:18.375Z,11.94
2018-05-16T04:38:46.501Z,11.97
2018-05-16T04:41:14.668Z,12.01
2018-05-16T04:43:42.816Z,12.07
2018-05-16T04:46:10.965Z,12.12
2018-05-16T04:48:39.119Z,12.16
2018-05-16T04:51:07.299Z,12.23
2018-05-16T04:53:35.438Z,12.22
2018-05-16T04:56:03.575Z,12.25
2018-05-16T04:58:31.711Z,12.28
2018-05-16T05:00:59.895Z,12.30
2018-05-16T05:03:27.973Z,12.32
2018-05-16T05:05:56.124Z,12.38
2018-05-16T05:08:24.252Z,12.40
2018-05-16T05:10:52.389Z,12.44
2018-05-16T05:13:20.522Z,12.47
2018-05-16T05:15:48.665Z,12.51
2018-05-16T05:18:16.873Z,12.62
2018-05-16T05:20:44.943Z,12.62
2018-05-16T05:23:13.076Z,12.72
2018-05-16T05:25:41.206Z,12.71
2018-05-16T05:28:09.339Z,12.75
2018-05-16T05:30:37.468Z,12.80
2018-05-16T05:33:05.655Z,12.82
2018-05-16T05:35:33.806Z,12.81
2018-05-16T05:38:01.937Z,12.83
2018-05-16T05:40:30.580Z,12.88
2018-05-16T05:42:58.713Z,12.94
2018-05-16T05:45:26.849Z,12.97
2018-05-16T05:47:54.985Z,13.00
2018-05-16T05:50:23.122Z,13.04
2018-05-16T05:52:51.251Z,13.03
2018-05-16T05:55:19.378Z,13.04
2018-05-16T05:57:47.511Z,13.07
2018-05-16T06:00:15.635Z,13.09
2018-05-16T06:02:43.767Z,13.07
2018-05-16T06:05:11.889Z,13.10
2018-05-16T06:07:40.064Z,13.13
2018-05-16T06:10:08.167Z,13.18
2018-05-16T06:12:36.301Z,13.18
2018-05-16T06:15:04.418Z,13.10
2018-05-16T06:17:32.556Z,13.07
2018-05-16T06:20:00.708Z,13.06
2018-05-16T06:22:28.831Z,13.06
2018-05-16T06:24:56.973Z,13.06
2018-05-16T06:27:25.124Z,13.07
2018-05-16T06:29:53.259Z,13.01
2018-05-16T06:32:21.387Z,13.01
2018-05-16T06:34:49.520Z,13.03
2018-05-16T06:37:17.656Z,13.01
2018-05-16T06:39:45.805Z,13.01
2018-05-16T06:42:13.938Z,13.01
2018-05-16T06:44:42.070Z,13.06
2018-05-16T06:47:10.215Z,13.07
2018-05-16T06:49:38.339Z,13.12
2018-05-16T06:52:06.462Z,13.19
2018-05-16T06:54:34.589Z,13.25
2018-05-16T06:57:02.742Z,13.24
2018-05-16T06:59:30.882Z,13.30
2018-05-16T07:01:59.002Z,13.28
2018-05-16T07:04:27.142Z,13.26
2018-05-16T07:06:55.270Z,13.27
2018-05-16T07:09:23.406Z,13.26
2018-05-16T07:11:51.531Z,13.29
2018-05-16T07:14:19.657Z,13.33
2018-05-16T07:16:47.799Z,13.33
2018-05-16T07:19:15.951Z,13.31
2018-05-16T07:21:44.081Z,13.27
2018-05-16T07:24:12.724Z,13.26
2018-05-16T07:26:40.850Z,13.24
2018-05-16T07:29:08.974Z,13.30
2018-05-16T07:31:37.139Z,13.29
2018-05-16T07:34:05.264Z,13.36
2018-05-16T07:36:33.429Z,13.39
2018-05-16T07:39:01.568Z,13.39
2018-05-16T07:41:29.689Z,13.43
2018-05-16T07:43:57.832Z,13.49
2018-05-16T07:46:25.962Z,13.54
2018-05-16T07:48:54.100Z,13.63
2018-05-16T07:51:22.242Z,13.77
2018-05-16T07:53:50.393Z,14.02
2018-05-16T07:56:18.518Z,14.10
2018-05-16T07:58:46.655Z,14.36
2018-05-16T08:01:14.795Z,14.68
2018-05-16T08:03:42.916Z,14.94
2018-05-16T08:06:11.078Z,15.06
2018-05-16T08:08:39.212Z,15.16
2018-05-16T08:11:07.411Z,15.08
2018-05-16T08:13:35.558Z,15.00
2018-05-16T08:16:03.835Z,14.87
2018-05-16T08:18:31.977Z,14.69
2018-05-16T08:21:00.135Z,14.52
2018-05-16T08:23:28.260Z,14.52
2018-05-16T08:25:56.388Z,14.48
2018-05-16T08:28:24.534Z,14.49
2018-05-16T08:30:52.665Z,14.60
2018-05-16T08:33:20.801Z,14.62
2018-05-16T08:35:48.926Z,14.68
2018-05-16T08:38:17.072Z,14.72
2018-05-16T08:40:45.211Z,14.76
2018-05-16T08:43:13.356Z,14.72
2018-05-16T08:45:41.491Z,14.68
2018-05-16T08:48:09.642Z,14.60
2018-05-16T08:50:37.790Z,14.58
2018-05-16T08:53:06.026Z,14.51
2018-05-16T08:55:34.145Z,14.63
2018-05-16T08:58:02.277Z,14.69
2018-05-16T09:00:30.424Z,14.75
2018-05-16T09:02:58.575Z,14.85
2018-05-16T09:05:26.695Z,15.00
2018-05-16T09:07:54.835Z,15.15
2018-05-16T09:10:22.980Z,15.28
2018-05-16T09:12:51.110Z,15.36
2018-05-16T09:15:19.276Z,15.36
2018-05-16T09:17:47.410Z,15.28
2018-05-16T09:20:17.214Z,15.42
2018-05-16T09:22:45.343Z,15.53
2018-05-16T09:25:13.498Z,15.67
2018-05-16T09:27:41.623Z,15.58
2018-05-16T09:30:09.764Z,15.69
2018-05-16T09:32:37.901Z,15.78
2018-05-16T09:35:06.082Z,15.85
2018-05-16T09:37:34.266Z,16.00
2018-05-16T09:40:02.412Z,16.00
2018-05-16T09:42:30.555Z,16.16
2018-05-16T09:44:58.698Z,16.28
2018-05-16T09:47:26.852Z,16.46
2018-05-16T09:49:54.981Z,16.61
2018-05-16T09:52:23.112Z,16.81
2018-05-16T09:54:51.241Z,16.72
2018-05-16T09:57:19.388Z,16.60
2018-05-16T09:59:47.543Z,16.62
2018-05-16T10:02:15.670Z,16.65
2018-05-16T10:04:43.799Z,16.91
2018-05-16T10:07:11.935Z,17.37
2018-05-16T10:09:40.086Z,17.84
2018-05-16T10:12:08.204Z,18.13
2018-05-16T10:14:36.356Z,17.90
2018-05-16T10:17:04.582Z,17.74
2018-05-16T10:19:32.702Z,17.52
2018-05-16T10:22:00.838Z,17.36
2018-05-16T10:24:28.979Z,17.15
2018-05-16T10:26:57.108Z,17.07
2018-05-16T10:29:25.295Z,17.05
2018-05-16T10:31:53.357Z,16.99
2018-05-16T10:34:22.684Z,17.04
2018-05-16T10:36:50.836Z,17.20
2018-05-16T10:39:18.969Z,17.82
2018-05-16T10:41:47.105Z,18.09
2018-05-16T10:44:15.247Z,18.02
2018-05-16T10:46:43.385Z,17.63
2018-05-16T10:49:11.509Z,17.33
2018-05-16T10:51:39.643Z,16.97
2018-05-16T10:54:07.792Z,16.80
2018-05-16T10:56:35.926Z,16.63
2018-05-16T10:59:04.054Z,16.68
2018-05-16T11:01:32.183Z,16.85
2018-05-16T11:04:00.309Z,17.02
2018-05-16T11:06:28.428Z,17.01
2018-05-16T11:08:56.575Z,16.91
2018-05-16T11:11:24.684Z,16.98
2018-05-16T11:13:52.816Z,17.15
2018-05-16T11:16:21.756Z,17.17
2018-05-16T11:18:49.890Z,17.18
2018-05-16T11:21:18.111Z,17.18
2018-05-16T11:23:46.270Z,17.10
2018-05-16T11:26:14.415Z,17.06
2018-05-16T11:28:43.439Z,17.05
2018-05-16T11:31:11.567Z,17.04
2018-05-16T11:33:39.705Z,17.28
2018-05-16T11:36:07.854Z,17.47
2018-05-16T11:38:35.990Z,17.83
2018-05-16T11:41:04.134Z,18.30
2018-05-16T11:43:32.260Z,18.63
2018-05-16T11:46:00.403Z,18.89
2018-05-16T11:48:28.528Z,19.20
2018-05-16T11:50:56.668Z,19.36
2018-05-16T11:53:24.811Z,19.49
2018-05-16T11:55:52.931Z,19.41
2018-05-16T11:58:21.067Z,19.59
2018-05-16T12:00:49.212Z,19.83
2018-05-16T12:03:17.378Z,19.70
2018-05-16T12:05:45.502Z,19.48
2018-05-16T12:08:13.638Z,19.75
2018-05-16T12:10:41.761Z,19.79
2018-05-16T12:13:10.439Z,19.66
2018-05-16T12:15:38.571Z,19.86
2018-05-16T12:18:06.700Z,20.12
2018-05-16T12:20:34.845Z,20.51
2018-05-16T12:23:02.974Z,20.41
2018-05-16T12:25:31.130Z,20.33
2018-05-16T12:27:59.294Z,20.30
2018-05-16T12:30:27.402Z,20.32
2018-05-16T12:32:55.524Z,20.67
2018-05-16T12:35:23.686Z,20.69
2018-05-16T12:37:51.819Z,20.64
2018-05-16T12:40:19.939Z,20.87
2018-05-16T12:42:59.751Z,20.95
2018-05-16T12:45:27.891Z,20.95
2018-05-16T12:47:56.028Z,20.58
2018-05-16T12:50:24.298Z,20.56
2018-05-16T12:52:52.426Z,20.68
2018-05-16T12:55:20.560Z,20.84
2018-05-16T12:57:48.714Z,20.58
2018-05-16T13:00:16.835Z,20.45
2018-05-16T13:02:44.975Z,20.37
2018-05-16T13:05:13.127Z,20.02
2018-05-16T13:07:41.241Z,19.66
2018-05-16T13:10:09.363Z,19.95
2018-05-16T13:12:37.646Z,20.10
2018-05-16T13:15:05.827Z,20.29
2018-05-16T13:17:33.952Z,20.16
2018-05-16T13:20:02.084Z,20.10
2018-05-16T13:22:30.206Z,19.84
2018-05-16T13:24:58.336Z,19.48
2018-05-16T13:27:26.465Z,19.16
2018-05-16T13:29:54.599Z,18.78
2018-05-16T13:32:22.718Z,18.53
2018-05-16T13:34:51.007Z,18.44
2018-05-16T13:37:19.137Z,18.37
2018-05-16T13:39:47.278Z,18.35
2018-05-16T13:42:15.434Z,18.19
2018-05-16T13:44:43.546Z,18.20
2018-05-16T13:47:11.681Z,18.00
2018-05-16T13:49:39.807Z,17.88
2018-05-16T13:52:07.943Z,17.88
2018-05-16T13:54:36.062Z,17.87
2018-05-16T13:57:04.180Z,17.77
2018-05-16T13:59:32.308Z,17.62
2018-05-16T14:02:00.429Z,17.58
2018-05-16T14:04:28.559Z,17.68
2018-05-16T14:06:56.685Z,17.79
2018-05-16T14:09:24.822Z,17.87
2018-05-16T14:11:52.953Z,17.94
2018-05-16T14:14:21.107Z,17.99
2018-05-16T14:16:49.243Z,17.91
2018-05-16T14:19:17.386Z,17.78
2018-05-16T14:21:45.521Z,17.52
2018-05-16T14:24:13.657Z,17.22
2018-05-16T14:26:41.804Z,16.85
2018-05-16T14:29:10.442Z,16.59
2018-05-16T14:31:38.566Z,16.68
2018-05-16T14:34:06.690Z,16.97
2018-05-16T14:36:34.811Z,17.00
2018-05-16T14:39:02.949Z,17.27
2018-05-16T14:41:31.101Z,17.66
2018-05-16T14:43:59.219Z,17.82
2018-05-16T14:46:27.333Z,17.94
2018-05-16T14:48:55.480Z,17.85
2018-05-16T14:51:23.713Z,17.78
2018-05-16T14:53:51.843Z,17.78
2018-05-16T14:56:19.982Z,17.95
2018-05-16T14:58:48.102Z,18.18
2018-05-16T15:01:16.231Z,18.21
2018-05-16T15:03:44.369Z,18.27
2018-05-16T15:06:12.487Z,18.23
2018-05-16T15:08:40.619Z,18.23
2018-05-16T15:11:08.765Z,18.11
2018-05-16T15:13:36.902Z,17.83
2018-05-16T15:16:05.028Z,18.06
2018-05-16T15:18:33.142Z,18.17
2018-05-16T15:21:01.279Z,18.13
2018-05-16T15:23:29.402Z,17.98
2018-05-16T15:25:57.575Z,18.17
2018-05-16T15:28:25.693Z,18.30
2018-05-16T15:30:53.830Z,18.38
2018-05-16T15:33:21.962Z,18.10
2018-05-16T15:35:50.079Z,18.13
2018-05-16T15:38:18.330Z,18.19
2018-05-16T15:40:46.360Z,18.15
2018-05-16T15:43:15.245Z,18.04
2018-05-16T15:45:43.366Z,18.05
2018-05-16T15:48:11.511Z,18.10
2018-05-16T15:50:39.633Z,18.17
2018-05-16T15:53:07.825Z,18.13
2018-05-16T15:55:35.954Z,18.01
2018-05-16T15:58:04.070Z,17.72
2018-05-16T16:00:32.200Z,17.53
2018-05-16T16:03:00.312Z,17.32
2018-05-16T16:05:28.433Z,17.22
2018-05-16T16:07:56.547Z,17.07
2018-05-16T16:10:24.671Z,17.06
2018-05-16T16:12:52.833Z,16.95
2018-05-16T16:15:20.960Z,16.87
2018-05-16T16:17:49.090Z,16.86
2018-05-16T16:20:17.202Z,16.75
2018-05-16T16:22:45.317Z,16.73
2018-05-16T16:25:13.455Z,16.65
2018-05-16T16:27:41.571Z,16.57
2018-05-16T16:30:09.681Z,16.47
2018-05-16T16:32:37.811Z,16.39
2018-05-16T16:35:05.949Z,16.31
2018-05-16T16:37:34.058Z,16.23
2018-05-16T16:40:02.180Z,16.17
2018-05-16T16:42:30.317Z,16.04
2018-05-16T16:44:58.484Z,16.05
2018-05-16T16:47:26.564Z,15.95
2018-05-16T16:49:54.684Z,15.87
2018-05-16T16:52:22.812Z,15.84
2018-05-16T16:54:50.945Z,15.76
2018-05-16T16:57:19.212Z,15.68
2018-05-16T16:59:47.191Z,15.64
2018-05-16T17:02:15.396Z,15.68
2018-05-16T17:04:43.579Z,15.62
2018-05-16T17:07:11.646Z,15.65
2018-05-16T17:09:39.786Z,15.61
2018-05-16T17:12:07.914Z,15.58
2018-05-16T17:14:36.041Z,15.54
2018-05-16T17:17:04.163Z,15.52
2018-05-16T17:19:32.478Z,15.50
2018-05-16T17:22:01.366Z,15.47
2018-05-16T17:24:29.501Z,15.47
2018-05-16T17:26:57.639Z,15.42
2018-05-16T17:29:25.750Z,15.39
2018-05-16T17:31:53.951Z,15.38
2018-05-16T17:34:22.067Z,15.39
2018-05-16T17:36:50.179Z,15.36
2018-05-16T17:39:18.313Z,15.34
2018-05-16T17:41:46.456Z,15.36
2018-05-16T17:44:15.106Z,15.30
2018-05-16T17:46:43.230Z,15.30
2018-05-16T17:49:11.349Z,15.26
2018-05-16T17:51:39.479Z,15.23
2018-05-16T17:54:07.595Z,15.21
2018-05-16T17:56:35.705Z,15.21
2018-05-16T17:59:03.815Z,15.18
2018-05-16T18:01:31.939Z,15.14
2018-05-16T18:04:00.105Z,15.14
2018-05-16T18:06:28.266Z,15.11
2018-05-16T18:08:56.348Z,15.11
2018-05-16T18:11:24.473Z,15.10
2018-05-16T18:17:06.712Z,15.04
2018-05-16T18:19:35.483Z,15.03
2018-05-16T18:22:03.607Z,15.03
2018-05-16T18:24:31.730Z,15.03
2018-05-16T18:26:59.856Z,15.01
2018-05-16T18:29:27.983Z,15.00
2018-05-16T18:31:56.120Z,14.99
2018-05-16T18:34:24.246Z,14.99
2018-05-16T18:36:52.366Z,14.99
2018-05-16T18:39:20.495Z,15.19
2018-05-16T18:41:48.643Z,15.15
2018-05-16T18:44:16.780Z,15.07
2018-05-16T18:46:44.891Z,14.97
2018-05-16T18:49:13.125Z,14.90
2018-05-16T18:51:41.250Z,14.76
2018-05-16T18:54:09.374Z,14.56
2018-05-16T18:56:37.498Z,14.45
2018-05-16T18:59:05.625Z,14.30
2018-05-16T19:01:33.749Z,14.22
2018-05-16T19:04:01.879Z,14.08
2018-05-16T19:06:30.005Z,13.95
2018-05-16T19:08:58.123Z,13.82
2018-05-16T19:11:26.291Z,13.79
2018-05-16T19:13:54.416Z,13.70
2018-05-16T19:16:22.535Z,13.59
2018-05-16T19:18:50.657Z,13.52
2018-05-16T19:21:18.795Z,13.48
2018-05-16T19:23:46.932Z,13.42
2018-05-16T19:26:15.294Z,13.39
2018-05-16T19:28:43.402Z,13.38
2018-05-16T19:31:11.553Z,13.37
2018-05-16T19:33:40.041Z,13.28
2018-05-16T19:36:08.160Z,13.22
2018-05-16T19:38:36.288Z,13.19
2018-05-16T19:41:04.420Z,13.15
2018-05-16T19:43:32.530Z,13.20
2018-05-16T19:46:00.776Z,13.19
2018-05-16T19:48:28.895Z,13.13
2018-05-16T19:50:57.021Z,13.14
2018-05-16T19:53:25.140Z,13.13
2018-05-16T19:55:53.539Z,13.18
2018-05-16T19:58:21.664Z,13.11
2018-05-16T20:00:49.786Z,13.06
2018-05-16T20:03:17.976Z,13.08
2018-05-16T20:05:46.055Z,13.09
2018-05-16T20:08:14.171Z,13.08
2018-05-16T20:10:42.333Z,13.08
2018-05-16T20:13:10.487Z,13.04
2018-05-16T20:15:38.646Z,13.04
2018-05-16T20:18:06.813Z,13.00
2018-05-16T20:20:34.970Z,12.97
2018-05-16T20:23:03.130Z,12.93
2018-05-16T20:25:31.293Z,12.91
2018-05-16T20:27:59.428Z,12.94
2018-05-16T20:30:27.595Z,12.90
2018-05-16T20:32:55.757Z,12.89
2018-05-16T20:35:23.914Z,12.87
2018-05-16T20:37:52.069Z,12.84
2018-05-16T20:40:20.247Z,12.81
2018-05-16T20:42:48.369Z,12.78
2018-05-16T20:45:16.491Z,12.75
2018-05-16T20:47:44.623Z,12.75
2018-05-16T20:50:12.754Z,12.78
2018-05-16T20:52:40.870Z,12.75
2018-05-16T20:55:08.995Z,12.75
2018-05-16T20:57:37.112Z,12.72
2018-05-16T21:00:05.263Z,12.75
2018-05-16T21:02:33.373Z,12.77
2018-05-16T21:05:01.486Z,12.77
2018-05-16T21:07:29.609Z,12.78
2018-05-16T21:09:57.748Z,12.84
2018-05-16T21:12:25.858Z,12.84
2018-05-16T21:14:54.866Z,12.87
2018-05-16T21:17:23.005Z,12.86
2018-05-16T21:19:51.154Z,12.88
2018-05-16T21:22:19.271Z,12.87
2018-05-16T21:24:47.391Z,12.82
2018-05-16T21:27:15.510Z,12.85
2018-05-16T21:29:43.655Z,12.79
2018-05-16T21:32:11.811Z,12.76
2018-05-16T21:34:39.928Z,12.77
2018-05-16T21:37:08.071Z,12.80
2018-05-16T21:39:36.203Z,12.85
2018-05-16T21:42:04.332Z,12.84
2018-05-16T21:44:32.461Z,12.85
2018-05-16T21:47:00.585Z,12.84
2018-05-16T21:49:28.721Z,12.88
2018-05-16T21:51:56.856Z,12.88
2018-05-16T21:54:24.982Z,12.89
2018-05-16T21:56:53.099Z,12.91
2018-05-16T21:59:21.214Z,12.89
2018-05-16T22:01:49.341Z,12.93
2018-05-16T22:04:17.482Z,12.97
2018-05-16T22:06:45.591Z,12.97
2018-05-16T22:09:13.726Z,12.98
2018-05-16T22:11:41.867Z,12.96
2018-05-16T22:14:09.990Z,12.96
2018-05-16T22:16:38.395Z,12.96
2018-05-16T22:19:06.575Z,12.96
2018-05-16T22:21:34.707Z,12.97
2018-05-16T22:24:02.851Z,13.02
2018-05-16T22:26:30.984Z,13.01
2018-05-16T22:28:59.120Z,13.01
2018-05-16T22:31:32.919Z,13.00
2018-05-16T22:34:06.636Z,13.01
2018-05-16T22:36:43.814Z,13.02
2018-05-16T22:39:17.686Z,13.04
2018-05-16T22:41:51.414Z,13.06
2018-05-16T22:44:44.711Z,13.06
2018-05-16T22:47:12.863Z,13.06
2018-05-16T22:49:40.989Z,13.08
2018-05-16T22:52:09.149Z,13.08
2018-05-16T22:54:37.300Z,13.08
2018-05-16T22:57:05.496Z,13.08
2018-05-16T22:59:33.629Z,13.07
2018-05-16T23:02:01.785Z,13.07
2018-05-16T23:04:29.901Z,13.08
2018-05-16T23:06:58.057Z,13.09
2018-05-16T23:09:26.190Z,13.08
2018-05-16T23:11:54.325Z,13.08
2018-05-16T23:14:23.210Z,13.08
2018-05-16T23:16:51.356Z,13.08
2018-05-16T23:19:19.487Z,13.08
2018-05-16T23:21:47.612Z,13.07
2018-05-16T23:24:15.765Z,13.08
2018-05-16T23:26:43.895Z,13.08
2018-05-16T23:29:12.038Z,13.09
2018-05-16T23:31:40.163Z,13.10
2018-05-16T23:34:08.300Z,13.10
2018-05-16T23:36:36.432Z,13.10
2018-05-16T23:39:05.358Z,13.10
2018-05-16T23:41:33.480Z,13.10
2018-05-16T23:44:01.590Z,13.11
2018-05-16T23:46:29.749Z,13.12
2018-05-16T23:48:57.866Z,13.12
2018-05-16T23:51:26.018Z,13.13
2018-05-16T23:53:54.137Z,13.13
2018-05-16T23:56:22.274Z,13.12
2018-05-16T23:58:50.422Z,13.14
